sensor_id;sensor_type;location;lat;lon;timestamp;temperature;humidity
24384;DHT22;12504;52.870;8.798;2022-10-16T00:02:00;12.20;99.90
24384;DHT22;12504;52.870;8.798;2022-10-16T00:04:26;12.20;99.90
24384;DHT22;12504;52.870;8.798;2022-10-16T00:06:51;12.20;99.90
24384;DHT22;12504;52.870;8.798;2022-10-16T00:09:17;12.20;99.90
24384;DHT22;12504;52.870;8.798;2022-10-16T00:11:43;12.20;99.90
24384;DHT22;12504;52.870;8.798;2022-10-16T00:14:13;12.20;99.90
24384;DHT22;12504;52.870;8.798;2022-10-16T00:16:39;12.10;99.90
24384;DHT22;12504;52.870;8.798;2022-10-16T00:19:05;12.10;99.90
24384;DHT22;12504;52.870;8.798;2022-10-16T00:21:33;12.00;99.90
24384;DHT22;12504;52.870;8.798;2022-10-16T00:24:00;12.00;99.90
24384;DHT22;12504;52.870;8.798;2022-10-16T00:26:27;12.10;99.90
24384;DHT22;12504;52.870;8.798;2022-10-16T00:28:52;12.00;99.90
24384;DHT22;12504;52.870;8.798;2022-10-16T00:31:19;12.00;99.90
24384;DHT22;12504;52.870;8.798;2022-10-16T00:33:45;12.00;99.90
24384;DHT22;12504;52.870;8.798;2022-10-16T00:36:12;12.00;99.90
24384;DHT22;12504;52.870;8.798;2022-10-16T00:38:37;12.00;99.90
24384;DHT22;12504;52.870;8.798;2022-10-16T00:41:04;12.00;99.90
24384;DHT22;12504;52.870;8.798;2022-10-16T00:43:34;11.90;99.90
24384;DHT22;12504;52.870;8.798;2022-10-16T00:46:00;11.90;99.90
24384;DHT22;12504;52.870;8.798;2022-10-16T00:48:25;11.90;99.90
24384;DHT22;12504;52.870;8.798;2022-10-16T00:50:51;11.90;99.90
24384;DHT22;12504;52.870;8.798;2022-10-16T00:53:17;11.80;99.90
24384;DHT22;12504;52.870;8.798;2022-10-16T00:55:43;11.80;99.90
24384;DHT22;12504;52.870;8.798;2022-10-16T00:58:09;11.80;99.90
24384;DHT22;12504;52.870;8.798;2022-10-16T01:00:35;11.80;99.90
24384;DHT22;12504;52.870;8.798;2022-10-16T01:03:01;11.80;99.90
24384;DHT22;12504;52.870;8.798;2022-10-16T01:05:31;11.80;99.90
24384;DHT22;12504;52.870;8.798;2022-10-16T01:08:04;11.70;99.90
24384;DHT22;12504;52.870;8.798;2022-10-16T01:10:35;11.70;99.90
24384;DHT22;12504;52.870;8.798;2022-10-16T01:15:47;11.70;99.90
24384;DHT22;12504;52.870;8.798;2022-10-16T01:18:16;11.70;99.90
24384;DHT22;12504;52.870;8.798;2022-10-16T01:20:48;11.70;99.90
24384;DHT22;12504;52.870;8.798;2022-10-16T01:26:20;11.70;99.90
24384;DHT22;12504;52.870;8.798;2022-10-16T01:28:51;11.70;99.90
24384;DHT22;12504;52.870;8.798;2022-10-16T01:31:19;11.70;99.90
24384;DHT22;12504;52.870;8.798;2022-10-16T01:33:46;11.60;99.90
24384;DHT22;12504;52.870;8.798;2022-10-16T01:36:17;11.60;99.90
24384;DHT22;12504;52.870;8.798;2022-10-16T01:38:44;11.60;99.90
24384;DHT22;12504;52.870;8.798;2022-10-16T01:41:15;11.70;99.90
24384;DHT22;12504;52.870;8.798;2022-10-16T01:43:44;11.60;99.90
24384;DHT22;12504;52.870;8.798;2022-10-16T01:46:11;11.60;99.90
24384;DHT22;12504;52.870;8.798;2022-10-16T01:48:38;11.50;99.90
24384;DHT22;12504;52.870;8.798;2022-10-16T02:15:25;11.50;99.90
24384;DHT22;12504;52.870;8.798;2022-10-16T02:17:50;11.60;99.90
24384;DHT22;12504;52.870;8.798;2022-10-16T02:20:16;11.70;99.90
24384;DHT22;12504;52.870;8.798;2022-10-16T02:22:48;11.60;99.90
24384;DHT22;12504;52.870;8.798;2022-10-16T02:25:27;11.70;99.90
24384;DHT22;12504;52.870;8.798;2022-10-16T02:30:36;11.70;99.90
24384;DHT22;12504;52.870;8.798;2022-10-16T02:33:02;11.70;99.90
24384;DHT22;12504;52.870;8.798;2022-10-16T02:35:29;11.70;99.90
24384;DHT22;12504;52.870;8.798;2022-10-16T02:37:56;11.60;99.90
24384;DHT22;12504;52.870;8.798;2022-10-16T02:40:22;11.70;99.90
24384;DHT22;12504;52.870;8.798;2022-10-16T02:42:49;11.70;99.90
24384;DHT22;12504;52.870;8.798;2022-10-16T02:45:15;11.70;99.90
24384;DHT22;12504;52.870;8.798;2022-10-16T02:47:42;11.70;99.90
24384;DHT22;12504;52.870;8.798;2022-10-16T02:50:07;11.70;99.90
24384;DHT22;12504;52.870;8.798;2022-10-16T02:52:33;11.70;99.90
24384;DHT22;12504;52.870;8.798;2022-10-16T02:54:58;11.70;99.90
24384;DHT22;12504;52.870;8.798;2022-10-16T02:57:24;11.80;99.90
24384;DHT22;12504;52.870;8.798;2022-10-16T02:59:50;11.80;99.90
24384;DHT22;12504;52.870;8.798;2022-10-16T03:02:15;11.70;99.90
24384;DHT22;12504;52.870;8.798;2022-10-16T03:04:41;11.70;99.90
24384;DHT22;12504;52.870;8.798;2022-10-16T03:07:07;11.80;99.90
24384;DHT22;12504;52.870;8.798;2022-10-16T03:09:33;11.80;99.90
24384;DHT22;12504;52.870;8.798;2022-10-16T03:11:58;11.90;99.90
24384;DHT22;12504;52.870;8.798;2022-10-16T03:14:24;11.90;99.90
24384;DHT22;12504;52.870;8.798;2022-10-16T03:16:50;11.90;99.90
24384;DHT22;12504;52.870;8.798;2022-10-16T03:19:16;11.90;99.90
24384;DHT22;12504;52.870;8.798;2022-10-16T03:21:41;11.80;99.90
24384;DHT22;12504;52.870;8.798;2022-10-16T03:24:07;11.80;99.90
24384;DHT22;12504;52.870;8.798;2022-10-16T03:26:33;11.90;99.90
24384;DHT22;12504;52.870;8.798;2022-10-16T03:28:58;11.90;99.90
24384;DHT22;12504;52.870;8.798;2022-10-16T03:31:24;11.90;99.90
24384;DHT22;12504;52.870;8.798;2022-10-16T03:33:50;11.80;99.90
24384;DHT22;12504;52.870;8.798;2022-10-16T03:36:16;11.80;99.90
24384;DHT22;12504;52.870;8.798;2022-10-16T03:38:41;11.80;99.90
24384;DHT22;12504;52.870;8.798;2022-10-16T03:41:07;11.80;99.90
24384;DHT22;12504;52.870;8.798;2022-10-16T03:43:33;11.80;99.90
24384;DHT22;12504;52.870;8.798;2022-10-16T03:45:58;11.90;99.90
24384;DHT22;12504;52.870;8.798;2022-10-16T03:48:24;11.90;99.90
24384;DHT22;12504;52.870;8.798;2022-10-16T03:50:50;11.90;99.90
24384;DHT22;12504;52.870;8.798;2022-10-16T03:53:17;12.00;99.90
24384;DHT22;12504;52.870;8.798;2022-10-16T03:55:44;12.00;99.90
24384;DHT22;12504;52.870;8.798;2022-10-16T03:58:10;12.00;99.90
24384;DHT22;12504;52.870;8.798;2022-10-16T04:00:36;12.10;99.90
24384;DHT22;12504;52.870;8.798;2022-10-16T04:03:04;12.10;99.90
24384;DHT22;12504;52.870;8.798;2022-10-16T04:05:30;12.10;99.90
24384;DHT22;12504;52.870;8.798;2022-10-16T04:07:56;12.20;99.90
24384;DHT22;12504;52.870;8.798;2022-10-16T04:10:21;12.20;99.90
24384;DHT22;12504;52.870;8.798;2022-10-16T04:12:47;12.30;99.90
24384;DHT22;12504;52.870;8.798;2022-10-16T04:15:12;12.30;99.90
24384;DHT22;12504;52.870;8.798;2022-10-16T04:17:38;12.30;99.90
24384;DHT22;12504;52.870;8.798;2022-10-16T04:20:04;12.30;99.90
24384;DHT22;12504;52.870;8.798;2022-10-16T04:22:29;12.30;99.90
24384;DHT22;12504;52.870;8.798;2022-10-16T04:24:55;12.30;99.90
24384;DHT22;12504;52.870;8.798;2022-10-16T04:27:21;12.30;99.90
24384;DHT22;12504;52.870;8.798;2022-10-16T04:29:46;12.40;99.90
24384;DHT22;12504;52.870;8.798;2022-10-16T04:32:12;12.40;99.90
24384;DHT22;12504;52.870;8.798;2022-10-16T04:34:38;12.30;99.90
24384;DHT22;12504;52.870;8.798;2022-10-16T04:37:04;12.30;99.90
24384;DHT22;12504;52.870;8.798;2022-10-16T04:39:30;12.40;99.90
24384;DHT22;12504;52.870;8.798;2022-10-16T04:41:55;12.30;99.90
24384;DHT22;12504;52.870;8.798;2022-10-16T04:44:21;12.30;99.90
24384;DHT22;12504;52.870;8.798;2022-10-16T04:46:47;12.20;99.90
24384;DHT22;12504;52.870;8.798;2022-10-16T04:49:12;12.30;99.90
24384;DHT22;12504;52.870;8.798;2022-10-16T04:51:38;12.30;99.90
24384;DHT22;12504;52.870;8.798;2022-10-16T04:54:03;12.30;99.90
24384;DHT22;12504;52.870;8.798;2022-10-16T04:56:29;12.20;99.90
24384;DHT22;12504;52.870;8.798;2022-10-16T04:58:54;12.20;99.90
24384;DHT22;12504;52.870;8.798;2022-10-16T05:01:20;12.10;99.90
24384;DHT22;12504;52.870;8.798;2022-10-16T05:03:46;12.10;99.90
24384;DHT22;12504;52.870;8.798;2022-10-16T05:06:11;12.10;99.90
24384;DHT22;12504;52.870;8.798;2022-10-16T05:08:37;12.10;99.90
24384;DHT22;12504;52.870;8.798;2022-10-16T05:11:02;12.10;99.90
24384;DHT22;12504;52.870;8.798;2022-10-16T05:13:28;12.10;99.90
24384;DHT22;12504;52.870;8.798;2022-10-16T05:15:54;12.10;99.90
24384;DHT22;12504;52.870;8.798;2022-10-16T05:18:20;12.10;99.90
24384;DHT22;12504;52.870;8.798;2022-10-16T05:20:45;12.10;99.90
24384;DHT22;12504;52.870;8.798;2022-10-16T05:23:11;12.10;99.90
24384;DHT22;12504;52.870;8.798;2022-10-16T05:25:37;12.10;99.90
24384;DHT22;12504;52.870;8.798;2022-10-16T05:28:02;12.10;99.90
24384;DHT22;12504;52.870;8.798;2022-10-16T05:30:28;12.10;99.90
24384;DHT22;12504;52.870;8.798;2022-10-16T05:32:54;12.20;99.90
24384;DHT22;12504;52.870;8.798;2022-10-16T05:35:19;12.10;99.90
24384;DHT22;12504;52.870;8.798;2022-10-16T05:37:46;12.20;99.90
24384;DHT22;12504;52.870;8.798;2022-10-16T05:40:11;12.20;99.90
24384;DHT22;12504;52.870;8.798;2022-10-16T05:42:38;12.20;99.90
24384;DHT22;12504;52.870;8.798;2022-10-16T05:45:04;12.20;99.90
24384;DHT22;12504;52.870;8.798;2022-10-16T05:47:30;12.20;99.90
24384;DHT22;12504;52.870;8.798;2022-10-16T05:49:56;12.20;99.90
24384;DHT22;12504;52.870;8.798;2022-10-16T05:52:21;12.20;99.90
24384;DHT22;12504;52.870;8.798;2022-10-16T05:54:47;12.20;99.90
24384;DHT22;12504;52.870;8.798;2022-10-16T05:57:13;12.20;99.90
24384;DHT22;12504;52.870;8.798;2022-10-16T05:59:38;12.20;99.90
24384;DHT22;12504;52.870;8.798;2022-10-16T06:02:04;12.20;99.90
24384;DHT22;12504;52.870;8.798;2022-10-16T06:04:29;12.20;99.90
24384;DHT22;12504;52.870;8.798;2022-10-16T06:06:57;12.20;99.90
24384;DHT22;12504;52.870;8.798;2022-10-16T06:09:29;12.30;99.90
24384;DHT22;12504;52.870;8.798;2022-10-16T06:11:54;12.30;99.90
24384;DHT22;12504;52.870;8.798;2022-10-16T06:14:20;12.40;99.90
24384;DHT22;12504;52.870;8.798;2022-10-16T06:16:46;12.40;99.90
24384;DHT22;12504;52.870;8.798;2022-10-16T06:19:11;12.40;99.90
24384;DHT22;12504;52.870;8.798;2022-10-16T06:21:37;12.50;99.90
24384;DHT22;12504;52.870;8.798;2022-10-16T06:24:03;12.50;99.90
24384;DHT22;12504;52.870;8.798;2022-10-16T06:26:29;12.50;99.90
24384;DHT22;12504;52.870;8.798;2022-10-16T06:28:56;12.50;99.90
24384;DHT22;12504;52.870;8.798;2022-10-16T06:31:22;12.50;99.90
24384;DHT22;12504;52.870;8.798;2022-10-16T06:33:50;12.50;99.90
24384;DHT22;12504;52.870;8.798;2022-10-16T06:36:16;12.50;99.90
24384;DHT22;12504;52.870;8.798;2022-10-16T06:38:43;12.50;99.90
24384;DHT22;12504;52.870;8.798;2022-10-16T06:41:09;12.50;99.90
24384;DHT22;12504;52.870;8.798;2022-10-16T06:43:36;12.60;99.90
24384;DHT22;12504;52.870;8.798;2022-10-16T06:46:02;12.60;99.90
24384;DHT22;12504;52.870;8.798;2022-10-16T06:48:29;12.60;99.90
24384;DHT22;12504;52.870;8.798;2022-10-16T06:51:03;12.60;99.90
24384;DHT22;12504;52.870;8.798;2022-10-16T06:53:30;12.60;99.90
24384;DHT22;12504;52.870;8.798;2022-10-16T06:55:56;12.60;99.90
24384;DHT22;12504;52.870;8.798;2022-10-16T06:58:22;12.70;99.90
24384;DHT22;12504;52.870;8.798;2022-10-16T07:00:48;12.70;99.90
24384;DHT22;12504;52.870;8.798;2022-10-16T07:03:14;12.70;99.90
24384;DHT22;12504;52.870;8.798;2022-10-16T07:05:40;12.80;99.90
24384;DHT22;12504;52.870;8.798;2022-10-16T07:08:05;12.90;99.90
24384;DHT22;12504;52.870;8.798;2022-10-16T07:10:31;12.90;99.90
24384;DHT22;12504;52.870;8.798;2022-10-16T07:12:57;12.90;99.90
24384;DHT22;12504;52.870;8.798;2022-10-16T07:15:24;12.90;99.90
24384;DHT22;12504;52.870;8.798;2022-10-16T07:17:49;13.00;99.90
24384;DHT22;12504;52.870;8.798;2022-10-16T07:20:15;13.00;99.90
24384;DHT22;12504;52.870;8.798;2022-10-16T07:22:40;13.00;99.90
24384;DHT22;12504;52.870;8.798;2022-10-16T07:25:06;13.00;99.90
24384;DHT22;12504;52.870;8.798;2022-10-16T07:27:32;13.00;99.90
24384;DHT22;12504;52.870;8.798;2022-10-16T07:29:57;13.00;99.90
24384;DHT22;12504;52.870;8.798;2022-10-16T07:32:23;13.00;99.90
24384;DHT22;12504;52.870;8.798;2022-10-16T07:34:51;13.00;99.90
24384;DHT22;12504;52.870;8.798;2022-10-16T07:37:16;13.00;99.90
24384;DHT22;12504;52.870;8.798;2022-10-16T07:39:42;13.10;99.90
24384;DHT22;12504;52.870;8.798;2022-10-16T07:42:08;13.30;99.90
24384;DHT22;12504;52.870;8.798;2022-10-16T07:44:33;13.30;99.90
24384;DHT22;12504;52.870;8.798;2022-10-16T07:46:59;13.40;99.90
24384;DHT22;12504;52.870;8.798;2022-10-16T07:49:24;13.60;99.90
24384;DHT22;12504;52.870;8.798;2022-10-16T07:51:50;13.70;99.90
24384;DHT22;12504;52.870;8.798;2022-10-16T07:54:16;13.80;99.90
24384;DHT22;12504;52.870;8.798;2022-10-16T07:56:41;14.00;99.90
24384;DHT22;12504;52.870;8.798;2022-10-16T07:59:07;14.10;99.90
24384;DHT22;12504;52.870;8.798;2022-10-16T08:01:32;14.20;99.90
24384;DHT22;12504;52.870;8.798;2022-10-16T08:03:58;14.30;99.90
24384;DHT22;12504;52.870;8.798;2022-10-16T08:06:23;14.40;99.90
24384;DHT22;12504;52.870;8.798;2022-10-16T08:08:49;14.40;99.90
24384;DHT22;12504;52.870;8.798;2022-10-16T08:11:15;14.50;99.90
24384;DHT22;12504;52.870;8.798;2022-10-16T08:13:41;14.60;99.90
24384;DHT22;12504;52.870;8.798;2022-10-16T08:16:06;14.60;99.90
24384;DHT22;12504;52.870;8.798;2022-10-16T08:18:37;14.60;99.90
24384;DHT22;12504;52.870;8.798;2022-10-16T08:21:03;14.70;99.90
24384;DHT22;12504;52.870;8.798;2022-10-16T08:23:29;14.70;99.90
24384;DHT22;12504;52.870;8.798;2022-10-16T08:25:56;14.70;99.90
24384;DHT22;12504;52.870;8.798;2022-10-16T08:28:22;14.70;99.90
24384;DHT22;12504;52.870;8.798;2022-10-16T08:30:47;14.70;99.90
24384;DHT22;12504;52.870;8.798;2022-10-16T08:33:13;14.70;99.90
24384;DHT22;12504;52.870;8.798;2022-10-16T08:35:39;14.80;99.90
24384;DHT22;12504;52.870;8.798;2022-10-16T08:38:05;14.80;99.90
24384;DHT22;12504;52.870;8.798;2022-10-16T08:40:32;14.80;99.90
24384;DHT22;12504;52.870;8.798;2022-10-16T08:50:52;15.00;99.90
24384;DHT22;12504;52.870;8.798;2022-10-16T08:53:20;14.80;99.90
24384;DHT22;12504;52.870;8.798;2022-10-16T08:55:52;14.80;99.90
24384;DHT22;12504;52.870;8.798;2022-10-16T08:58:22;14.80;99.90
24384;DHT22;12504;52.870;8.798;2022-10-16T09:00:58;14.90;99.90
24384;DHT22;12504;52.870;8.798;2022-10-16T09:03:28;14.90;99.90
24384;DHT22;12504;52.870;8.798;2022-10-16T09:08:29;15.00;99.90
24384;DHT22;12504;52.870;8.798;2022-10-16T09:10:58;15.10;99.90
24384;DHT22;12504;52.870;8.798;2022-10-16T09:16:22;15.20;99.90
24384;DHT22;12504;52.870;8.798;2022-10-16T09:21:41;15.30;99.90
24384;DHT22;12504;52.870;8.798;2022-10-16T09:24:12;15.30;99.90
24384;DHT22;12504;52.870;8.798;2022-10-16T09:26:38;15.40;99.90
24384;DHT22;12504;52.870;8.798;2022-10-16T09:29:04;15.50;99.90
24384;DHT22;12504;52.870;8.798;2022-10-16T09:31:30;15.50;99.90
24384;DHT22;12504;52.870;8.798;2022-10-16T09:33:59;15.50;99.90
24384;DHT22;12504;52.870;8.798;2022-10-16T09:36:25;15.60;99.90
24384;DHT22;12504;52.870;8.798;2022-10-16T09:39:05;15.60;99.90
24384;DHT22;12504;52.870;8.798;2022-10-16T09:41:33;15.70;99.90
24384;DHT22;12504;52.870;8.798;2022-10-16T09:44:00;15.80;99.90
24384;DHT22;12504;52.870;8.798;2022-10-16T09:46:34;16.00;99.90
24384;DHT22;12504;52.870;8.798;2022-10-16T09:49:04;16.20;99.90
24384;DHT22;12504;52.870;8.798;2022-10-16T09:53:57;16.70;99.90
24384;DHT22;12504;52.870;8.798;2022-10-16T09:56:24;16.80;99.90
24384;DHT22;12504;52.870;8.798;2022-10-16T09:58:51;17.00;99.90
24384;DHT22;12504;52.870;8.798;2022-10-16T10:01:17;17.20;99.90
24384;DHT22;12504;52.870;8.798;2022-10-16T10:03:44;17.20;99.90
24384;DHT22;12504;52.870;8.798;2022-10-16T10:06:16;17.00;99.90
24384;DHT22;12504;52.870;8.798;2022-10-16T10:11:39;16.90;99.90
24384;DHT22;12504;52.870;8.798;2022-10-16T10:14:06;16.90;99.90
24384;DHT22;12504;52.870;8.798;2022-10-16T10:16:32;17.00;99.90
24384;DHT22;12504;52.870;8.798;2022-10-16T10:18:58;17.20;99.90
24384;DHT22;12504;52.870;8.798;2022-10-16T10:21:24;17.40;99.90
24384;DHT22;12504;52.870;8.798;2022-10-16T10:23:56;17.50;99.90
24384;DHT22;12504;52.870;8.798;2022-10-16T10:26:26;17.70;99.90
24384;DHT22;12504;52.870;8.798;2022-10-16T10:31:49;17.90;99.90
24384;DHT22;12504;52.870;8.798;2022-10-16T10:34:27;17.80;99.90
24384;DHT22;12504;52.870;8.798;2022-10-16T10:37:23;17.70;99.90
24384;DHT22;12504;52.870;8.798;2022-10-16T10:39:45;17.70;99.90
24384;DHT22;12504;52.870;8.798;2022-10-16T10:54:56;18.00;99.90
24384;DHT22;12504;52.870;8.798;2022-10-16T10:57:30;18.00;99.90
24384;DHT22;12504;52.870;8.798;2022-10-16T11:02:34;17.80;99.90
24384;DHT22;12504;52.870;8.798;2022-10-16T11:07:40;17.70;99.90
24384;DHT22;12504;52.870;8.798;2022-10-16T11:10:18;17.60;99.90
24384;DHT22;12504;52.870;8.798;2022-10-16T11:12:46;17.60;99.90
24384;DHT22;12504;52.870;8.798;2022-10-16T11:39:33;20.90;3.20
24384;DHT22;12504;52.870;8.798;2022-10-16T11:44:38;20.80;1.00
24384;DHT22;12504;52.870;8.798;2022-10-16T11:47:15;20.80;1.00
24384;DHT22;12504;52.870;8.798;2022-10-16T11:49:45;21.80;1.00
24384;DHT22;12504;52.870;8.798;2022-10-16T11:54:39;23.40;99.90
24384;DHT22;12504;52.870;8.798;2022-10-16T12:07:36;24.50;99.90
24384;DHT22;12504;52.870;8.798;2022-10-16T12:10:10;24.00;99.90
24384;DHT22;12504;52.870;8.798;2022-10-16T12:12:39;23.50;99.90
24384;DHT22;12504;52.870;8.798;2022-10-16T12:15:26;22.90;99.90
24384;DHT22;12504;52.870;8.798;2022-10-16T12:17:51;21.80;1.00
24384;DHT22;12504;52.870;8.798;2022-10-16T12:28:05;20.60;1.00
24384;DHT22;12504;52.870;8.798;2022-10-16T12:30:33;20.60;1.00
24384;DHT22;12504;52.870;8.798;2022-10-16T12:33:05;20.40;1.00
24384;DHT22;12504;52.870;8.798;2022-10-16T12:35:32;20.50;1.00
24384;DHT22;12504;52.870;8.798;2022-10-16T12:38:05;20.70;99.90
24384;DHT22;12504;52.870;8.798;2022-10-16T12:40:32;20.60;99.90
24384;DHT22;12504;52.870;8.798;2022-10-16T12:42:58;20.50;1.00
24384;DHT22;12504;52.870;8.798;2022-10-16T12:47:50;20.10;1.00
24384;DHT22;12504;52.870;8.798;2022-10-16T12:50:24;19.80;1.00
24384;DHT22;12504;52.870;8.798;2022-10-16T12:52:50;19.80;1.00
24384;DHT22;12504;52.870;8.798;2022-10-16T12:55:16;20.10;1.00
24384;DHT22;12504;52.870;8.798;2022-10-16T13:00:36;20.40;1.00
24384;DHT22;12504;52.870;8.798;2022-10-16T13:08:51;20.50;99.90
24384;DHT22;12504;52.870;8.798;2022-10-16T13:13:31;19.60;1.00
24384;DHT22;12504;52.870;8.798;2022-10-16T13:24:10;19.00;1.00
24384;DHT22;12504;52.870;8.798;2022-10-16T13:29:03;18.80;1.00
24384;DHT22;12504;52.870;8.798;2022-10-16T13:31:29;19.00;1.00
24384;DHT22;12504;52.870;8.798;2022-10-16T13:33:56;19.40;1.00
24384;DHT22;12504;52.870;8.798;2022-10-16T13:36:25;19.90;1.00
24384;DHT22;12504;52.870;8.798;2022-10-16T13:39:06;20.10;1.00
24384;DHT22;12504;52.870;8.798;2022-10-16T13:41:35;20.00;99.90
24384;DHT22;12504;52.870;8.798;2022-10-16T13:44:01;19.70;99.90
24384;DHT22;12504;52.870;8.798;2022-10-16T13:46:26;19.90;99.90
24384;DHT22;12504;52.870;8.798;2022-10-16T13:48:56;19.80;99.90
24384;DHT22;12504;52.870;8.798;2022-10-16T13:51:22;19.90;1.00
24384;DHT22;12504;52.870;8.798;2022-10-16T13:53:47;20.00;99.90
24384;DHT22;12504;52.870;8.798;2022-10-16T13:56:14;20.10;99.90
24384;DHT22;12504;52.870;8.798;2022-10-16T13:58:41;20.30;1.00
24384;DHT22;12504;52.870;8.798;2022-10-16T14:01:15;20.30;99.90
24384;DHT22;12504;52.870;8.798;2022-10-16T14:06:11;19.30;99.90
24384;DHT22;12504;52.870;8.798;2022-10-16T14:08:40;19.10;1.00
24384;DHT22;12504;52.870;8.798;2022-10-16T14:11:07;19.30;1.00
24384;DHT22;12504;52.870;8.798;2022-10-16T14:13:38;19.50;1.00
24384;DHT22;12504;52.870;8.798;2022-10-16T14:16:10;19.80;1.00
24384;DHT22;12504;52.870;8.798;2022-10-16T14:18:36;20.00;1.00
24384;DHT22;12504;52.870;8.798;2022-10-16T14:21:04;20.10;99.90
24384;DHT22;12504;52.870;8.798;2022-10-16T14:23:31;20.20;99.90
24384;DHT22;12504;52.870;8.798;2022-10-16T14:26:06;20.10;99.90
24384;DHT22;12504;52.870;8.798;2022-10-16T14:28:40;19.90;99.90
24384;DHT22;12504;52.870;8.798;2022-10-16T14:33:44;19.20;1.00
24384;DHT22;12504;52.870;8.798;2022-10-16T14:38:36;18.90;1.00
24384;DHT22;12504;52.870;8.798;2022-10-16T14:41:02;19.10;1.00
24384;DHT22;12504;52.870;8.798;2022-10-16T14:43:33;19.20;1.00
24384;DHT22;12504;52.870;8.798;2022-10-16T14:45:59;19.40;1.00
24384;DHT22;12504;52.870;8.798;2022-10-16T14:48:25;19.50;1.00
24384;DHT22;12504;52.870;8.798;2022-10-16T14:50:50;19.50;1.00
24384;DHT22;12504;52.870;8.798;2022-10-16T14:53:17;19.50;1.00
24384;DHT22;12504;52.870;8.798;2022-10-16T14:55:43;19.50;1.00
24384;DHT22;12504;52.870;8.798;2022-10-16T14:58:11;19.50;1.00
24384;DHT22;12504;52.870;8.798;2022-10-16T15:00:40;19.50;1.00
24384;DHT22;12504;52.870;8.798;2022-10-16T15:03:05;19.50;1.00
24384;DHT22;12504;52.870;8.798;2022-10-16T15:05:31;19.50;1.00
24384;DHT22;12504;52.870;8.798;2022-10-16T15:07:57;19.50;1.00
24384;DHT22;12504;52.870;8.798;2022-10-16T15:10:23;19.50;1.00
24384;DHT22;12504;52.870;8.798;2022-10-16T15:12:49;19.30;1.00
24384;DHT22;12504;52.870;8.798;2022-10-16T15:15:20;19.30;1.00
24384;DHT22;12504;52.870;8.798;2022-10-16T15:17:47;19.20;1.00
24384;DHT22;12504;52.870;8.798;2022-10-16T15:20:13;19.00;1.00
24384;DHT22;12504;52.870;8.798;2022-10-16T15:22:38;18.90;1.00
24384;DHT22;12504;52.870;8.798;2022-10-16T15:27:49;18.60;1.00
24384;DHT22;12504;52.870;8.798;2022-10-16T15:30:14;18.40;1.00
24384;DHT22;12504;52.870;8.798;2022-10-16T15:32:40;18.10;1.00
24384;DHT22;12504;52.870;8.798;2022-10-16T15:35:08;17.90;1.00
24384;DHT22;12504;52.870;8.798;2022-10-16T15:37:33;17.80;1.00
24384;DHT22;12504;52.870;8.798;2022-10-16T15:39:59;17.50;1.00
24384;DHT22;12504;52.870;8.798;2022-10-16T15:42:25;17.10;1.00
24384;DHT22;12504;52.870;8.798;2022-10-16T15:44:51;16.80;41.40
24384;DHT22;12504;52.870;8.798;2022-10-16T15:47:16;16.70;78.00
24384;DHT22;12504;52.870;8.798;2022-10-16T15:49:42;16.50;93.70
24384;DHT22;12504;52.870;8.798;2022-10-16T15:52:07;16.50;69.80
24384;DHT22;12504;52.870;8.798;2022-10-16T15:54:35;16.50;81.90
24384;DHT22;12504;52.870;8.798;2022-10-16T15:57:00;16.40;99.40
24384;DHT22;12504;52.870;8.798;2022-10-16T15:59:26;16.20;99.90
24384;DHT22;12504;52.870;8.798;2022-10-16T16:01:51;16.10;99.90
24384;DHT22;12504;52.870;8.798;2022-10-16T16:04:17;15.90;99.90
24384;DHT22;12504;52.870;8.798;2022-10-16T16:06:43;15.80;99.90
24384;DHT22;12504;52.870;8.798;2022-10-16T16:09:13;15.70;99.90
24384;DHT22;12504;52.870;8.798;2022-10-16T16:11:39;15.60;99.90
24384;DHT22;12504;52.870;8.798;2022-10-16T16:14:10;15.40;99.90
24384;DHT22;12504;52.870;8.798;2022-10-16T16:16:36;15.30;99.90
24384;DHT22;12504;52.870;8.798;2022-10-16T16:19:04;15.10;99.90
24384;DHT22;12504;52.870;8.798;2022-10-16T16:21:31;14.90;99.90
24384;DHT22;12504;52.870;8.798;2022-10-16T16:23:57;14.80;99.90
24384;DHT22;12504;52.870;8.798;2022-10-16T16:26:24;14.60;99.90
24384;DHT22;12504;52.870;8.798;2022-10-16T16:28:51;14.50;99.90
24384;DHT22;12504;52.870;8.798;2022-10-16T16:31:17;14.30;99.90
24384;DHT22;12504;52.870;8.798;2022-10-16T16:33:43;14.20;99.90
24384;DHT22;12504;52.870;8.798;2022-10-16T16:36:09;14.10;99.90
24384;DHT22;12504;52.870;8.798;2022-10-16T16:38:34;14.00;99.90
24384;DHT22;12504;52.870;8.798;2022-10-16T16:41:10;13.90;99.90
24384;DHT22;12504;52.870;8.798;2022-10-16T16:43:36;13.80;99.90
24384;DHT22;12504;52.870;8.798;2022-10-16T16:46:01;13.70;99.90
24384;DHT22;12504;52.870;8.798;2022-10-16T16:48:27;13.60;99.90
24384;DHT22;12504;52.870;8.798;2022-10-16T16:50:53;13.50;99.90
24384;DHT22;12504;52.870;8.798;2022-10-16T16:53:18;13.40;99.90
24384;DHT22;12504;52.870;8.798;2022-10-16T16:55:44;13.40;99.90
24384;DHT22;12504;52.870;8.798;2022-10-16T16:58:09;13.30;99.90
24384;DHT22;12504;52.870;8.798;2022-10-16T17:00:35;13.20;99.90
24384;DHT22;12504;52.870;8.798;2022-10-16T17:05:27;13.10;99.90
24384;DHT22;12504;52.870;8.798;2022-10-16T17:07:52;12.70;99.90
24384;DHT22;12504;52.870;8.798;2022-10-16T17:10:18;12.50;99.90
24384;DHT22;12504;52.870;8.798;2022-10-16T17:12:44;12.50;99.90
24384;DHT22;12504;52.870;8.798;2022-10-16T17:15:10;12.20;99.90
24384;DHT22;12504;52.870;8.798;2022-10-16T17:17:35;12.20;99.90
